Time;durP1;ratioP1;P1;durP2;ratioP2;P2;SDS_P1;SDS_P2;PMS_P1;PMS_P2;Temp;Humidity;BMP_temperature;BMP_pressure;BME280_temperature;BME280_humidity;BME280_pressure;Samples;Min_cycle;Max_cycle;Signal;HPM_P1;HPM_P2
2022/04/19 00:00:51;;;;;;;5.22;3.53;;;11.00;96.90;;;;;;5036524;28;20033;-84
2022/04/19 00:03:16;;;;;;;6.03;3.80;;;11.00;97.00;;;;;;5036267;28;20029;-83
2022/04/19 00:05:43;;;;;;;5.32;3.42;;;10.90;97.10;;;;;;5018251;28;20033;-83
2022/04/19 00:08:10;;;;;;;5.88;3.53;;;10.90;97.10;;;;;;5018573;28;20453;-84
2022/04/19 00:10:36;;;;;;;5.75;3.55;;;10.90;97.20;;;;;;5036276;28;20036;-84
2022/04/19 00:13:04;;;;;;;6.40;3.80;;;10.80;97.30;;;;;;5052218;28;20029;-84
2022/04/19 00:15:32;;;;;;;5.18;3.75;;;10.80;97.30;;;;;;5051711;28;20032;-84
2022/04/19 00:18:02;;;;;;;5.78;4.03;;;10.80;97.30;;;;;;5052038;28;20544;-84
2022/04/19 00:20:28;;;;;;;5.28;3.70;;;10.80;97.50;;;;;;5052442;28;20133;-83
2022/04/19 00:22:55;;;;;;;5.72;3.55;;;10.70;97.50;;;;;;5051430;28;20030;-84
2022/04/19 00:25:20;;;;;;;4.57;3.30;;;10.60;97.60;;;;;;5051528;28;20029;-84
2022/04/19 00:27:46;;;;;;;5.72;3.58;;;10.60;97.70;;;;;;5018447;28;20467;-84
2022/04/19 00:30:13;;;;;;;6.28;3.83;;;10.60;97.80;;;;;;5051435;28;20079;-84
2022/04/19 00:32:39;;;;;;;5.38;3.83;;;10.60;98.10;;;;;;5051507;28;20513;-84
2022/04/19 00:35:07;;;;;;;5.22;3.58;;;10.50;97.90;;;;;;5052116;28;20094;-85
2022/04/19 00:37:34;;;;;;;6.10;3.97;;;10.50;97.90;;;;;;5050661;28;20119;-85
2022/04/19 00:40:01;;;;;;;6.63;4.35;;;10.50;97.90;;;;;;5050887;28;20025;-84
2022/04/19 00:42:31;;;;;;;7.93;3.45;;;10.40;97.90;;;;;;5051380;28;20475;-84
2022/04/19 00:45:02;;;;;;;5.20;3.50;;;10.40;97.90;;;;;;5018873;28;20426;-86
2022/04/19 00:47:29;;;;;;;5.30;3.42;;;10.40;97.90;;;;;;5052035;28;20040;-85
2022/04/19 00:49:54;;;;;;;5.20;3.50;;;10.40;97.90;;;;;;5053266;28;20533;-86
2022/04/19 00:52:20;;;;;;;6.47;4.13;;;10.40;97.90;;;;;;5019520;28;20033;-84
2022/04/19 00:54:47;;;;;;;4.20;3.40;;;10.40;97.90;;;;;;5019679;28;20109;-85
2022/04/19 00:57:13;;;;;;;6.32;3.72;;;10.40;97.80;;;;;;5019489;28;20095;-84
2022/04/19 00:59:39;;;;;;;5.97;3.92;;;10.30;97.70;;;;;;5052250;28;20430;-85
2022/04/19 01:02:05;;;;;;;5.85;4.05;;;10.40;97.80;;;;;;5052116;28;20029;-86
2022/04/19 01:04:31;;;;;;;6.15;4.38;;;10.40;97.80;;;;;;5019660;28;20138;-85
2022/04/19 01:06:57;;;;;;;5.85;3.75;;;10.30;97.70;;;;;;5036258;28;20355;-85
2022/04/19 01:09:24;;;;;;;6.72;4.18;;;10.30;97.70;;;;;;5017849;28;20030;-85
2022/04/19 01:14:36;;;;;;;8.00;4.05;;;10.20;97.80;;;;;;5036402;28;20040;-85
2022/04/19 01:17:02;;;;;;;5.45;3.83;;;10.20;97.90;;;;;;5017878;28;20534;-84
2022/04/19 01:19:29;;;;;;;5.72;4.00;;;10.10;97.90;;;;;;5018053;28;20409;-85
2022/04/19 01:21:54;;;;;;;5.07;3.72;;;10.10;98.00;;;;;;5042557;28;20038;-84
2022/04/19 01:24:22;;;;;;;8.60;4.22;;;10.10;98.10;;;;;;5021514;28;20045;-84
2022/04/19 01:26:49;;;;;;;4.82;3.60;;;10.00;98.20;;;;;;5036348;28;20085;-85
2022/04/19 01:29:15;;;;;;;5.45;3.78;;;10.00;98.30;;;;;;5019390;28;20033;-85
2022/04/19 01:31:42;;;;;;;5.78;4.03;;;9.90;98.40;;;;;;5051094;28;20027;-85
2022/04/19 01:34:08;;;;;;;5.95;4.32;;;9.90;98.50;;;;;;5037191;28;20033;-84
2022/04/19 01:36:38;;;;;;;6.10;3.95;;;9.80;98.50;;;;;;5019578;28;20137;-85
2022/04/19 01:39:05;;;;;;;5.90;4.40;;;9.80;98.60;;;;;;5049308;28;20050;-85
2022/04/19 01:41:31;;;;;;;6.30;4.00;;;9.70;98.50;;;;;;5035265;28;20037;-84
2022/04/19 01:43:58;;;;;;;6.85;4.20;;;9.70;98.60;;;;;;5034425;28;20065;-83
2022/04/19 01:46:23;;;;;;;6.55;4.32;;;9.70;98.70;;;;;;5033896;28;20052;-85
2022/04/19 01:48:50;;;;;;;5.95;3.70;;;9.70;98.70;;;;;;5035976;28;20034;-86
2022/04/19 01:51:17;;;;;;;5.50;4.03;;;9.70;98.70;;;;;;5037685;28;20109;-85
2022/04/19 01:53:43;;;;;;;6.43;4.32;;;9.70;98.70;;;;;;5032459;28;20037;-85
2022/04/19 01:56:09;;;;;;;5.20;3.58;;;9.60;98.70;;;;;;5028413;28;20045;-85
2022/04/19 01:58:35;;;;;;;6.75;4.00;;;9.70;98.80;;;;;;5028177;28;20128;-84
2022/04/19 02:01:01;;;;;;;5.93;4.15;;;9.70;98.80;;;;;;5025521;28;20061;-85
2022/04/19 02:03:26;;;;;;;4.93;3.67;;;9.70;98.80;;;;;;5022746;28;20037;-85
2022/04/19 02:05:52;;;;;;;5.78;4.05;;;9.70;98.80;;;;;;5049483;28;20041;-84
2022/04/19 02:08:17;;;;;;;6.18;4.22;;;9.60;98.70;;;;;;5029490;28;20050;-84
2022/04/19 02:10:43;;;;;;;5.85;4.07;;;9.60;98.70;;;;;;5018566;28;20026;-84
2022/04/19 02:13:09;;;;;;;5.28;3.83;;;9.60;98.70;;;;;;5017753;28;20048;-85
2022/04/19 02:15:34;;;;;;;6.30;3.97;;;9.60;98.70;;;;;;5017426;28;20029;-85
2022/04/19 02:18:01;;;;;;;6.75;4.50;;;9.50;98.70;;;;;;5035313;28;20042;-85
2022/04/19 02:20:27;;;;;;;6.28;4.47;;;9.50;98.70;;;;;;5034733;28;20022;-85
2022/04/19 02:22:52;;;;;;;5.78;4.15;;;9.50;98.80;;;;;;5034925;28;20049;-84
2022/04/19 02:25:18;;;;;;;6.38;4.40;;;9.40;98.80;;;;;;5034353;28;20036;-84
2022/04/19 02:27:44;;;;;;;5.65;4.10;;;9.40;99.00;;;;;;5016639;28;20120;-84
2022/04/19 02:30:14;;;;;;;5.75;3.90;;;9.30;99.10;;;;;;5016848;28;20120;-85
2022/04/19 02:32:50;;;;;;;5.75;3.97;;;9.20;99.10;;;;;;5034523;28;20033;-85
2022/04/19 02:35:18;;;;;;;6.22;3.90;;;9.20;99.20;;;;;;5016945;28;20128;-85
2022/04/19 02:37:49;;;;;;;6.57;4.25;;;9.20;99.30;;;;;;5016607;28;20116;-85
2022/04/19 02:40:16;;;;;;;5.93;4.32;;;9.20;99.30;;;;;;5017133;28;20030;-87
2022/04/19 02:42:42;;;;;;;6.93;4.45;;;9.10;99.30;;;;;;5016549;28;20033;-85
2022/04/19 02:45:08;;;;;;;7.00;4.60;;;9.20;99.30;;;;;;5016638;28;20391;-84
2022/04/19 02:47:33;;;;;;;6.43;3.97;;;9.10;99.50;;;;;;5016567;28;20382;-85
2022/04/19 02:50:01;;;;;;;5.70;4.07;;;9.20;99.30;;;;;;5034215;28;20498;-84
2022/04/19 02:52:26;;;;;;;6.05;4.00;;;9.10;99.20;;;;;;5034237;28;20036;-85
2022/04/19 02:54:52;;;;;;;6.45;4.40;;;9.10;99.20;;;;;;5015894;28;20395;-85
2022/04/19 02:57:18;;;;;;;6.30;3.92;;;9.10;99.20;;;;;;5033848;28;20042;-85
2022/04/19 02:59:45;;;;;;;6.38;4.55;;;9.10;99.30;;;;;;5033980;28;20029;-85
2022/04/19 03:02:11;;;;;;;7.28;4.60;;;9.10;99.30;;;;;;5015710;28;20033;-85
2022/04/19 03:04:37;;;;;;;6.90;4.53;;;9.00;99.30;;;;;;5015869;28;20064;-85
2022/04/19 03:07:05;;;;;;;6.03;4.13;;;8.90;99.40;;;;;;5016317;28;20072;-85
2022/04/19 03:09:31;;;;;;;6.53;4.20;;;8.90;99.50;;;;;;5036436;28;20076;-85
2022/04/19 03:11:57;;;;;;;6.68;4.72;;;8.90;99.60;;;;;;5018029;28;20063;-85
2022/04/19 03:14:23;;;;;;;6.30;4.85;;;8.80;99.70;;;;;;5015919;28;20076;-83
2022/04/19 03:16:49;;;;;;;6.43;3.78;;;8.80;99.80;;;;;;5020391;28;20025;-84
2022/04/19 03:19:14;;;;;;;5.80;4.30;;;8.70;99.90;;;;;;5033592;28;20123;-84
2022/04/19 03:21:41;;;;;;;6.25;4.28;;;8.70;99.90;;;;;;5015199;28;20056;-84
2022/04/19 03:29:35;;;;;;;6.75;4.30;;;8.60;99.90;;;;;;5033233;28;20036;-84
2022/04/19 03:32:01;;;;;;;6.60;4.35;;;8.60;99.90;;;;;;5033213;28;20029;-85
2022/04/19 03:34:27;;;;;;;5.80;4.22;;;8.60;99.90;;;;;;5015316;28;20030;-85
2022/04/19 03:36:52;;;;;;;7.05;4.32;;;8.50;99.90;;;;;;5015046;28;20059;-85
2022/04/19 03:39:18;;;;;;;5.97;4.45;;;8.50;99.90;;;;;;5014900;28;20033;-84
2022/04/19 03:41:44;;;;;;;6.97;4.68;;;8.50;99.90;;;;;;5014979;28;20397;-85
2022/04/19 03:44:11;;;;;;;7.60;4.70;;;8.50;99.90;;;;;;5015396;28;20036;-84
2022/04/19 03:47:07;;;;;;;7.50;4.60;;;8.40;99.90;;;;;;5032662;28;20065;-84
2022/04/19 03:49:26;;;;;;;6.15;4.22;;;8.40;99.90;;;;;;5032832;28;20033;-85
2022/04/19 03:51:52;;;;;;;7.47;4.47;;;8.40;99.90;;;;;;5032738;28;20057;-84
2022/04/19 03:54:17;;;;;;;6.45;4.22;;;8.40;99.90;;;;;;5014989;28;20029;-84
2022/04/19 03:56:43;;;;;;;7.47;4.80;;;8.30;99.90;;;;;;5032883;28;20065;-84
2022/04/19 03:59:10;;;;;;;6.57;4.43;;;8.30;99.90;;;;;;5014782;28;20041;-85
2022/04/19 04:01:39;;;;;;;6.90;4.90;;;8.30;99.90;;;;;;5014646;28;20056;-84
2022/04/19 04:04:07;;;;;;;7.30;4.88;;;8.20;99.90;;;;;;5015142;28;20057;-83
2022/04/19 04:06:34;;;;;;;5.88;4.05;;;8.30;99.90;;;;;;5014741;28;20425;-85
2022/04/19 04:08:59;;;;;;;6.45;4.70;;;8.30;99.90;;;;;;5032376;28;20074;-84
2022/04/19 04:11:25;;;;;;;7.10;5.07;;;8.20;99.90;;;;;;5032228;28;20052;-84
2022/04/19 04:13:50;;;;;;;7.47;5.03;;;8.20;99.90;;;;;;5032209;28;20096;-84
2022/04/19 04:16:16;;;;;;;7.60;4.65;;;8.10;99.90;;;;;;5032346;28;20057;-84
2022/04/19 04:18:42;;;;;;;7.10;4.57;;;8.10;99.90;;;;;;5032506;28;20124;-84
2022/04/19 04:21:07;;;;;;;10.20;5.32;;;8.10;99.90;;;;;;5014856;28;20041;-83
2022/04/19 04:23:33;;;;;;;8.05;4.50;;;8.10;99.90;;;;;;5014551;28;20038;-84
2022/04/19 04:26:01;;;;;;;7.50;4.80;;;8.10;99.90;;;;;;5032335;28;20029;-84
2022/04/19 04:28:27;;;;;;;6.32;4.05;;;8.10;99.90;;;;;;5014579;28;20041;-84
2022/04/19 04:30:52;;;;;;;7.10;4.60;;;8.20;99.90;;;;;;5014547;28;20479;-84
2022/04/19 04:33:19;;;;;;;7.47;4.65;;;8.10;99.90;;;;;;5013824;28;20091;-83
2022/04/19 04:35:44;;;;;;;7.28;4.80;;;8.20;99.90;;;;;;5014767;28;20033;-84
2022/04/19 04:38:10;;;;;;;6.18;4.25;;;8.20;99.90;;;;;;5013818;28;20397;-85
2022/04/19 04:40:36;;;;;;;7.10;4.70;;;8.20;99.90;;;;;;5014294;28;20507;-83
2022/04/19 04:43:02;;;;;;;7.18;4.63;;;8.30;99.90;;;;;;5031874;28;20060;-83
2022/04/19 04:45:27;;;;;;;7.13;4.68;;;8.30;99.90;;;;;;5031829;28;20448;-82
2022/04/19 04:50:37;;;;;;;7.85;4.70;;;8.30;99.90;;;;;;5032023;28;20427;-83
2022/04/19 04:53:03;;;;;;;8.15;4.90;;;8.40;99.90;;;;;;5014156;28;20037;-82
2022/04/19 04:55:29;;;;;;;7.82;5.00;;;8.40;99.90;;;;;;5013690;28;20038;-82
2022/04/19 04:57:58;;;;;;;7.78;4.55;;;8.40;99.90;;;;;;5013766;28;20060;-82
2022/04/19 05:00:25;;;;;;;7.78;4.75;;;8.50;99.90;;;;;;5030234;28;20091;-82
2022/04/19 05:02:51;;;;;;;6.53;4.60;;;8.50;99.90;;;;;;5012089;28;20474;-82
2022/04/19 05:05:17;;;;;;;8.05;4.95;;;8.50;99.90;;;;;;5012105;28;20026;-81
2022/04/19 05:07:43;;;;;;;7.13;4.45;;;8.50;99.90;;;;;;5012427;28;20041;-82
2022/04/19 05:10:09;;;;;;;6.25;4.00;;;8.50;99.90;;;;;;5029884;28;20033;-81
2022/04/19 05:12:35;;;;;;;7.93;4.43;;;8.60;99.90;;;;;;5012571;28;20048;-82
2022/04/19 05:15:01;;;;;;;7.28;4.75;;;8.60;99.90;;;;;;5012550;28;20037;-82
2022/04/19 05:17:27;;;;;;;7.28;4.85;;;8.60;99.90;;;;;;5014539;28;20382;-82
2022/04/19 05:19:55;;;;;;;8.02;4.40;;;8.70;99.90;;;;;;5009614;28;20744;-81
2022/04/19 05:22:21;;;;;;;7.60;4.38;;;8.70;99.90;;;;;;5014715;28;20411;-82
2022/04/19 05:24:46;;;;;;;7.22;4.05;;;8.80;99.90;;;;;;5000143;28;20030;-82
2022/04/19 05:27:12;;;;;;;6.22;3.95;;;8.80;99.90;;;;;;5033796;28;20088;-83
2022/04/19 05:29:39;;;;;;;6.40;4.10;;;8.90;99.90;;;;;;5016539;28;20041;-82
2022/04/19 05:32:05;;;;;;;6.28;4.15;;;8.90;99.90;;;;;;5016277;28;20047;-82
2022/04/19 05:34:31;;;;;;;7.90;4.70;;;9.00;99.90;;;;;;5016613;28;20774;-82
2022/04/19 05:36:57;;;;;;;7.57;4.28;;;9.10;99.90;;;;;;5012999;28;20042;-82
2022/04/19 05:39:23;;;;;;;7.13;4.35;;;9.20;99.90;;;;;;5013667;28;20069;-82
2022/04/19 05:41:49;;;;;;;6.80;4.55;;;9.20;99.90;;;;;;5012999;28;20026;-82
2022/04/19 05:44:15;;;;;;;7.90;4.60;;;9.30;99.90;;;;;;5012561;28;20061;-82
2022/04/19 05:46:40;;;;;;;6.85;4.70;;;9.40;99.90;;;;;;5012730;28;20030;-82
2022/04/19 05:49:06;;;;;;;8.05;4.78;;;9.40;99.90;;;;;;5012293;28;20038;-82
2022/04/19 05:51:33;;;;;;;8.68;5.45;;;9.50;99.80;;;;;;5012621;28;20029;-82
2022/04/19 05:53:59;;;;;;;8.95;5.07;;;9.60;99.60;;;;;;5012542;28;20049;-82
2022/04/19 05:56:24;;;;;;;8.40;4.97;;;9.70;99.60;;;;;;5012401;28;20374;-82
2022/04/19 05:58:50;;;;;;;8.48;5.65;;;9.80;99.50;;;;;;5013805;28;20049;-82
2022/04/19 06:01:16;;;;;;;8.13;5.20;;;9.80;99.40;;;;;;5011464;28;20124;-83
2022/04/19 06:06:26;;;;;;;7.88;4.90;;;10.00;99.30;;;;;;5014369;28;20338;-82
2022/04/19 06:08:53;;;;;;;8.43;5.03;;;10.10;99.20;;;;;;5012534;28;20112;-83
2022/04/19 06:11:18;;;;;;;9.25;6.00;;;10.30;99.10;;;;;;5012081;28;20038;-83
2022/04/19 06:13:45;;;;;;;8.07;4.97;;;10.30;99.00;;;;;;5012335;28;20038;-83
2022/04/19 06:16:11;;;;;;;7.05;4.45;;;10.40;98.90;;;;;;5013724;28;20057;-83
2022/04/19 06:18:37;;;;;;;8.30;4.97;;;10.50;98.90;;;;;;5012362;28;20069;-83
2022/04/19 06:21:05;;;;;;;7.88;4.90;;;10.60;98.80;;;;;;5012190;28;20036;-83
2022/04/19 06:23:32;;;;;;;8.50;5.45;;;10.70;98.60;;;;;;5012190;28;20476;-83
2022/04/19 06:25:58;;;;;;;14.25;5.13;;;10.80;98.60;;;;;;5013150;28;20030;-83
2022/04/19 06:28:24;;;;;;;9.88;5.97;;;10.90;98.50;;;;;;5013315;28;20030;-83
2022/04/19 06:30:49;;;;;;;8.77;5.47;;;11.00;98.20;;;;;;5013848;28;20026;-84
2022/04/19 06:33:15;;;;;;;7.57;4.88;;;11.10;98.20;;;;;;5011559;28;20092;-83
2022/04/19 06:35:41;;;;;;;9.63;5.22;;;11.20;98.10;;;;;;5013400;28;20034;-83
2022/04/19 06:38:08;;;;;;;8.95;5.28;;;11.30;98.00;;;;;;5011897;28;20148;-84
2022/04/19 06:40:40;;;;;;;9.23;5.35;;;11.30;97.80;;;;;;5011994;28;20064;-82
2022/04/19 06:43:06;;;;;;;7.85;5.55;;;11.40;97.80;;;;;;5012394;28;20133;-82
2022/04/19 06:45:32;;;;;;;8.75;5.07;;;11.50;97.60;;;;;;5012960;28;20115;-83
2022/04/19 06:48:02;;;;;;;9.40;5.43;;;11.60;97.50;;;;;;5011480;28;20117;-82
2022/04/19 06:50:28;;;;;;;9.10;5.63;;;11.70;97.50;;;;;;5011482;28;20376;-83
2022/04/19 06:52:54;;;;;;;9.00;5.57;;;11.80;97.40;;;;;;5010976;28;20395;-82
2022/04/19 06:55:20;;;;;;;8.20;5.32;;;11.90;97.20;;;;;;5012138;28;20053;-82
2022/04/19 06:58:06;;;;;;;10.05;6.25;;;11.90;96.70;;;;;;5012691;28;20053;-83
2022/04/19 07:00:31;;;;;;;8.68;5.70;;;12.10;96.60;;;;;;5011047;28;20053;-83
2022/04/19 07:02:57;;;;;;;12.20;6.78;;;12.10;96.50;;;;;;5010877;28;20030;-84
2022/04/19 07:05:22;;;;;;;7.70;5.57;;;12.20;96.50;;;;;;5011463;28;20029;-83
2022/04/19 07:07:48;;;;;;;8.10;4.82;;;12.20;96.40;;;;;;5011539;28;20036;-83
2022/04/19 07:10:13;;;;;;;8.38;4.75;;;12.30;96.40;;;;;;5011542;28;20022;-83
2022/04/19 07:12:39;;;;;;;8.13;4.85;;;12.30;96.30;;;;;;5011225;28;20061;-83
2022/04/19 07:15:06;;;;;;;8.95;5.80;;;12.40;96.30;;;;;;5010845;28;20054;-84
2022/04/19 07:17:31;;;;;;;9.93;6.28;;;12.50;96.00;;;;;;5011267;28;20495;-83
2022/04/19 07:28:14;;;;;;;8.98;5.53;;;12.70;94.80;;;;;;5013083;28;20103;-83
2022/04/19 07:30:39;;;;;;;8.75;5.80;;;12.80;94.90;;;;;;5011246;28;20022;-83
2022/04/19 07:33:05;;;;;;;9.75;6.22;;;12.80;94.90;;;;;;5012561;28;20089;-84
2022/04/19 07:35:31;;;;;;;8.60;5.47;;;12.90;94.90;;;;;;5010681;28;20018;-83
2022/04/19 07:37:57;;;;;;;8.13;5.10;;;12.90;94.80;;;;;;5010740;28;20050;-83
2022/04/19 07:40:22;;;;;;;8.13;5.07;;;13.00;94.60;;;;;;5011151;28;20028;-83
2022/04/19 07:42:48;;;;;;;8.50;5.22;;;13.00;94.60;;;;;;5002430;28;20034;-85
2022/04/19 07:45:14;;;;;;;8.73;5.20;;;13.10;94.60;;;;;;5011004;28;20030;-84
2022/04/19 07:47:41;;;;;;;9.30;5.18;;;13.10;94.70;;;;;;5011702;28;20069;-83
2022/04/19 07:50:07;;;;;;;8.45;4.95;;;13.10;94.40;;;;;;5010657;28;20038;-84
2022/04/19 07:52:33;;;;;;;9.18;5.45;;;13.20;94.30;;;;;;5011016;28;20038;-83
2022/04/19 07:54:58;;;;;;;9.00;5.07;;;13.30;94.20;;;;;;5010823;28;20423;-84
2022/04/19 07:57:24;;;;;;;7.97;4.50;;;13.30;94.30;;;;;;5011478;28;20034;-84
2022/04/19 07:59:53;;;;;;;8.32;4.88;;;13.40;94.20;;;;;;5011451;28;20054;-84
2022/04/19 08:02:20;;;;;;;10.77;5.63;;;13.50;94.10;;;;;;4997700;28;20101;-84
2022/04/19 08:04:46;;;;;;;9.88;5.63;;;13.50;94.00;;;;;;5008920;28;20053;-83
2022/04/19 08:07:12;;;;;;;7.53;5.28;;;13.60;93.70;;;;;;5012482;28;20037;-83
2022/04/19 08:09:38;;;;;;;10.13;6.32;;;13.60;93.80;;;;;;5014492;28;20030;-83
2022/04/19 08:12:08;;;;;;;9.93;6.05;;;13.70;93.40;;;;;;5014602;28;20026;-83
2022/04/19 08:14:36;;;;;;;9.38;5.05;;;13.70;93.30;;;;;;5014750;28;20060;-84
2022/04/19 08:17:02;;;;;;;8.13;5.00;;;13.80;93.30;;;;;;5014843;28;20030;-81
2022/04/19 08:19:28;;;;;;;9.20;5.60;;;13.90;93.10;;;;;;5013964;28;20034;-83
2022/04/19 08:21:53;;;;;;;7.38;4.82;;;14.00;92.80;;;;;;5014103;28;20022;-83
2022/04/19 08:24:19;;;;;;;10.15;4.72;;;14.10;93.00;;;;;;5014346;28;20488;-81
2022/04/19 08:26:45;;;;;;;8.50;4.85;;;14.20;93.10;;;;;;5015536;28;20153;-83
2022/04/19 08:29:11;;;;;;;6.93;4.28;;;14.20;93.00;;;;;;5014072;28;20091;-83
2022/04/19 08:31:37;;;;;;;8.43;4.30;;;14.30;92.80;;;;;;5015392;28;20029;-84
2022/04/19 08:34:06;;;;;;;7.55;4.72;;;14.40;92.90;;;;;;5015540;28;20407;-84
2022/04/19 08:36:32;;;;;;;7.95;4.43;;;14.40;92.60;;;;;;5016579;28;20042;-83
2022/04/19 08:38:57;;;;;;;7.60;4.20;;;14.50;92.60;;;;;;5013755;28;20052;-83
2022/04/19 08:41:23;;;;;;;6.85;3.60;;;14.50;92.60;;;;;;5023301;28;20495;-82
2022/04/19 08:43:53;;;;;;;8.75;4.45;;;14.60;92.80;;;;;;5020201;28;20044;-81
2022/04/19 08:46:19;;;;;;;7.22;3.80;;;14.70;92.70;;;;;;5017833;28;20033;-80
2022/04/19 08:48:45;;;;;;;6.45;4.07;;;14.80;92.70;;;;;;5010218;28;20068;-83
2022/04/19 08:51:12;;;;;;;11.27;4.38;;;14.90;92.70;;;;;;5013888;28;20452;-80
2022/04/19 08:59:07;;;;;;;7.95;4.72;;;15.00;92.10;;;;;;5003236;28;20128;-82
2022/04/19 09:01:35;;;;;;;7.30;4.38;;;15.10;92.00;;;;;;5026825;28;20104;-82
2022/04/19 09:04:04;;;;;;;6.93;4.30;;;15.20;92.40;;;;;;5024547;28;20064;-82
2022/04/19 09:06:52;;;;;;;7.43;4.47;;;15.20;92.00;;;;;;5019317;28;20053;-82
2022/04/19 09:09:22;;;;;;;6.78;3.88;;;15.30;92.10;;;;;;5019201;28;20025;-82
2022/04/19 09:11:48;;;;;;;7.88;4.15;;;15.30;92.00;;;;;;5023536;28;20030;-83
2022/04/19 09:14:14;;;;;;;7.35;4.45;;;15.40;91.80;;;;;;5014454;28;20109;-83
2022/04/19 09:16:40;;;;;;;7.07;4.60;;;15.40;91.50;;;;;;5029773;28;20458;-83
2022/04/19 09:19:08;;;;;;;6.88;3.50;;;15.40;91.50;;;;;;5016193;28;20132;-82
2022/04/19 09:21:38;;;;;;;7.97;4.70;;;15.50;91.30;;;;;;5024144;28;20112;-82
2022/04/19 09:24:18;;;;;;;7.18;3.75;;;15.60;91.00;;;;;;5020430;28;20037;-81
2022/04/19 09:26:45;;;;;;;6.85;3.60;;;15.70;90.90;;;;;;5031437;28;20037;-82
2022/04/19 09:29:27;;;;;;;7.18;4.05;;;15.80;90.80;;;;;;5019809;28;20367;-82
2022/04/19 09:31:57;;;;;;;6.55;3.33;;;15.90;90.70;;;;;;5023953;28;20507;-82
2022/04/19 09:34:33;;;;;;;7.90;4.10;;;16.00;90.60;;;;;;5028318;28;20505;-83
2022/04/19 09:37:10;;;;;;;7.63;4.00;;;16.10;90.50;;;;;;5020850;28;20589;-83
2022/04/19 09:39:37;;;;;;;6.72;3.30;;;16.80;90.60;;;;;;5034322;28;20049;-83
2022/04/19 09:42:14;;;;;;;5.50;3.10;;;18.20;90.00;;;;;;5016101;28;20041;-82
2022/04/19 09:44:42;;;;;;;5.13;2.63;;;19.50;87.60;;;;;;5033474;28;20038;-82
2022/04/19 09:47:11;;;;;;;6.03;3.55;;;20.50;86.10;;;;;;5016935;28;20125;-82
2022/04/19 09:49:44;;;;;;;5.00;2.90;;;21.30;82.90;;;;;;5033647;28;20526;-83
2022/04/19 09:52:13;;;;;;;5.70;3.22;;;22.00;81.80;;;;;;5033644;28;20037;-83
2022/04/19 09:54:40;;;;;;;5.30;2.92;;;22.60;80.00;;;;;;5015826;28;20558;-84
2022/04/19 09:57:12;;;;;;;4.93;2.85;;;23.10;78.60;;;;;;5033231;28;20025;-82
2022/04/19 09:59:44;;;;;;;5.10;3.17;;;23.50;77.50;;;;;;5033592;28;20044;-83
2022/04/19 10:10:26;;;;;;;4.93;3.17;;;24.60;70.80;;;;;;5031730;28;20495;-83
2022/04/19 10:12:53;;;;;;;6.15;3.38;;;24.90;71.00;;;;;;5033200;28;20037;-84
2022/04/19 10:15:20;;;;;;;5.90;3.30;;;25.30;69.80;;;;;;5015567;28;20045;-84
2022/04/19 10:17:47;;;;;;;5.53;3.40;;;25.50;69.00;;;;;;5032436;28;20487;-83
2022/04/19 10:20:14;;;;;;;5.60;3.28;;;25.80;68.50;;;;;;5033025;28;20040;-83
2022/04/19 10:22:48;;;;;;;5.78;3.40;;;26.00;67.80;;;;;;5032495;28;20026;-83
2022/04/19 10:25:15;;;;;;;5.63;3.10;;;26.40;67.40;;;;;;5013609;28;20082;-83
2022/04/19 10:27:42;;;;;;;5.63;3.55;;;26.60;66.50;;;;;;5033567;28;20029;-83
2022/04/19 10:30:15;;;;;;;6.47;3.72;;;26.60;65.00;;;;;;5014901;28;20022;-85
2022/04/19 10:32:41;;;;;;;6.50;3.40;;;26.10;62.90;;;;;;5012144;28;20088;-83
2022/04/19 10:35:06;;;;;;;5.07;2.97;;;25.70;64.20;;;;;;5029989;28;20031;-83
2022/04/19 10:37:32;;;;;;;6.60;3.80;;;25.70;64.30;;;;;;5011610;28;20045;-84
2022/04/19 10:39:58;;;;;;;7.93;4.28;;;26.00;63.80;;;;;;5028995;28;20501;-84
2022/04/19 10:42:38;;;;;;;5.97;4.10;;;26.10;62.10;;;;;;5029951;28;20080;-84
2022/04/19 10:45:12;;;;;;;5.82;3.88;;;26.20;61.70;;;;;;5028653;28;20064;-84
2022/04/19 10:47:53;;;;;;;4.50;2.83;;;26.50;61.50;;;;;;5032662;28;20041;-84
2022/04/19 10:50:32;;;;;;;6.82;3.78;;;26.90;61.20;;;;;;5017236;28;20029;-84
2022/04/19 10:53:05;;;;;;;5.07;3.20;;;27.00;60.70;;;;;;5015566;28;20508;-83
2022/04/19 10:55:56;;;;;;;5.07;3.22;;;27.10;60.60;;;;;;5032613;28;20395;-84
2022/04/19 10:58:46;;;;;;;6.70;3.42;;;27.30;60.00;;;;;;5015003;28;20041;-83
2022/04/19 11:01:39;;;;;;;4.43;2.80;;;27.60;59.40;;;;;;4997631;28;20045;-84
2022/04/19 11:04:05;;;;;;;5.78;2.95;;;27.70;58.80;;;;;;5011100;28;20091;-84
2022/04/19 11:06:40;;;;;;;6.25;3.22;;;27.80;58.80;;;;;;5032525;28;20463;-84
2022/04/19 11:09:08;;;;;;;8.88;5.15;;;27.80;58.00;;;;;;5016582;28;20065;-82
2022/04/19 11:11:45;;;;;;;6.13;3.85;;;27.80;56.50;;;;;;5014001;28;20415;-83
2022/04/19 11:14:18;;;;;;;5.22;3.20;;;27.90;58.00;;;;;;5014525;28;20044;-82
2022/04/19 11:16:44;;;;;;;;;;;28.10;57.80;;;;;;5014872;28;20033;-82
2022/04/19 11:19:16;;;;;;;5.38;2.60;;;28.10;57.90;;;;;;5032241;28;19921;-82
2022/04/19 11:21:59;;;;;;;5.78;3.72;;;28.40;58.50;;;;;;5023012;28;20056;-83
2022/04/19 11:24:59;;;;;;;5.65;3.63;;;28.70;58.00;;;;;;5032274;28;20060;-83
2022/04/19 11:27:54;;;;;;;6.03;3.35;;;28.90;57.50;;;;;;5012679;28;20066;-83
2022/04/19 11:30:25;;;;;;;4.85;2.88;;;29.10;57.00;;;;;;5041505;28;20045;-81
2022/04/19 11:32:53;;;;;;;5.68;3.40;;;29.00;56.30;;;;;;5013596;28;20037;-81
2022/04/19 11:35:19;;;;;;;6.25;3.30;;;28.80;55.80;;;;;;5014476;28;20430;-82
2022/04/19 11:37:45;;;;;;;5.78;3.10;;;28.90;55.60;;;;;;5014264;28;20190;-81
2022/04/19 11:48:47;;;;;;;6.35;3.95;;;28.60;55.80;;;;;;5037045;28;19987;-83
2022/04/19 11:51:14;;;;;;;6.05;3.72;;;28.90;55.60;;;;;;5032410;28;20034;-83
2022/04/19 11:53:41;;;;;;;5.75;3.63;;;29.00;55.10;;;;;;5036579;28;20041;-83
2022/04/19 11:56:07;;;;;;;5.78;3.60;;;29.00;55.30;;;;;;5035293;28;20045;-83
2022/04/19 11:58:33;;;;;;;5.47;3.53;;;29.10;56.00;;;;;;5015269;28;20525;-82
2022/04/19 12:01:05;;;;;;;4.82;3.15;;;29.10;56.20;;;;;;5023877;28;20113;-83
2022/04/19 12:03:39;;;;;;;5.07;3.45;;;29.30;55.80;;;;;;5029326;28;20048;-81
2022/04/19 12:06:15;;;;;;;7.75;3.97;;;29.50;55.90;;;;;;5012970;28;20460;-81
2022/04/19 12:08:49;;;;;;;4.82;2.88;;;29.40;55.60;;;;;;5013735;28;20030;-81
2022/04/19 12:11:31;;;;;;;5.53;2.85;;;29.60;55.70;;;;;;5013119;28;20116;-82
2022/04/19 12:13:57;;;;;;;4.40;2.40;;;29.70;55.90;;;;;;5022241;28;20521;-82
2022/04/19 12:16:26;;;;;;;3.55;2.38;;;29.80;55.50;;;;;;5012417;28;20033;-81
2022/04/19 12:18:54;;;;;;;5.70;2.65;;;29.90;55.70;;;;;;5029615;28;20072;-81
2022/04/19 12:21:39;;;;;;;4.35;2.28;;;30.00;54.80;;;;;;5031250;28;20045;-81
2022/04/19 12:24:20;;;;;;;3.47;2.20;;;30.00;54.60;;;;;;5014472;28;20030;-82
2022/04/19 12:26:50;;;;;;;4.90;2.20;;;29.80;54.90;;;;;;5034706;28;20029;-82
2022/04/19 12:29:16;;;;;;;3.92;2.17;;;29.90;54.90;;;;;;5035846;28;20111;-81
2022/04/19 12:31:50;;;;;;;2.97;1.90;;;30.10;54.90;;;;;;5016737;28;20509;-81
2022/04/19 12:34:16;;;;;;;4.13;2.50;;;30.30;54.50;;;;;;5044699;28;20077;-82
2022/04/19 12:36:46;;;;;;;5.57;2.63;;;30.20;54.10;;;;;;5025515;28;20156;-82
2022/04/19 12:39:12;;;;;;;3.72;2.20;;;30.20;53.80;;;;;;5040732;28;20791;-82
2022/04/19 12:41:43;;;;;;;3.85;2.05;;;30.30;54.50;;;;;;5034236;28;20055;-81
2022/04/19 12:44:11;;;;;;;3.28;2.05;;;30.30;54.70;;;;;;5027015;28;20085;-81
2022/04/19 12:46:54;;;;;;;2.35;1.83;;;30.50;54.50;;;;;;5051995;28;20034;-81
2022/04/19 12:49:23;;;;;;;3.03;2.08;;;30.70;54.70;;;;;;5043688;28;20033;-81
2022/04/19 12:52:06;;;;;;;2.65;1.67;;;30.70;54.20;;;;;;5031938;28;20033;-81
2022/04/19 12:54:37;;;;;;;3.20;1.98;;;30.70;54.00;;;;;;5031255;28;20036;-82
2022/04/19 12:57:22;;;;;;;2.85;1.92;;;30.50;53.90;;;;;;5034559;28;20018;-81
2022/04/19 12:59:47;;;;;;;3.22;1.98;;;30.40;53.60;;;;;;5023117;28;20041;-81
2022/04/19 13:02:15;;;;;;;2.45;1.75;;;30.50;53.60;;;;;;5035622;28;20044;-82
2022/04/19 13:04:41;;;;;;;2.10;1.40;;;30.30;54.20;;;;;;5034299;28;20034;-80
2022/04/19 13:12:35;;;;;;;1.90;1.40;;;30.00;54.50;;;;;;5037223;28;20470;-81
2022/04/19 13:15:04;;;;;;;2.92;1.48;;;30.10;53.80;;;;;;5016861;28;20030;-81
2022/04/19 13:17:32;;;;;;;2.45;1.58;;;30.20;55.00;;;;;;5010211;28;20041;-82
2022/04/19 13:19:57;;;;;;;1.80;1.30;;;30.30;54.70;;;;;;5011091;28;20371;-82
2022/04/19 13:22:23;;;;;;;1.60;1.27;;;30.20;54.10;;;;;;5026835;28;20521;-82
2022/04/19 13:24:50;;;;;;;3.30;1.58;;;30.10;54.00;;;;;;5009410;28;20056;-81
2022/04/19 13:27:16;;;;;;;2.88;1.70;;;30.30;54.50;;;;;;5009901;28;20041;-81
2022/04/19 13:29:42;;;;;;;4.22;1.83;;;30.30;54.30;;;;;;5009908;28;20029;-81
2022/04/19 13:32:10;;;;;;;3.92;1.73;;;30.10;54.40;;;;;;5009069;28;20132;-81
2022/04/19 13:34:36;;;;;;;2.35;1.30;;;29.70;54.70;;;;;;5027520;28;20025;-81
2022/04/19 13:37:03;;;;;;;1.65;1.30;;;29.60;54.60;;;;;;5024471;28;20045;-81
2022/04/19 13:39:29;;;;;;;2.17;1.50;;;29.70;54.20;;;;;;5035073;28;20125;-82
2022/04/19 13:41:55;;;;;;;1.83;1.10;;;29.80;54.40;;;;;;5023401;28;20025;-81
2022/04/19 13:44:21;;;;;;;1.95;1.23;;;29.70;53.80;;;;;;5019667;28;20061;-82